Terminal Aerodrome Forecast
Issued by NWS Nashville, TN

Current Version | Previous Version | Text Only | Print | Product List | Glossary On
Versions: 1 2 3 4 5 6 7 8 9 10 11 12 13 14
000
FTUS44 KOHX 271100
TAFBNA
TAF
KBNA 271123Z 2712/2812 VRB03KT P6SM BKN045
     FM271500 06007KT P6SM BKN050 BKN200
     FM280100 VRB03KT P6SM SKC
     FM281000 00000KT 4SM BR SCT150=

USA.gov is the U.S. government's official web portal to all federal, state and local government web resources and services.